createdAt,value
2022-11-21T00:00:26.795Z,61.45
2022-11-21T00:01:30.444Z,65.90
2022-11-21T00:02:33.964Z,65.38
2022-11-21T00:03:38.583Z,65.18
2022-11-21T00:04:41.681Z,60.90
2022-11-21T00:05:49.134Z,57.28
2022-11-21T00:06:52.801Z,64.15
2022-11-21T00:07:56.912Z,71.93
2022-11-21T00:08:59.933Z,65.75
2022-11-21T00:10:03.611Z,66.95
2022-11-21T00:11:06.696Z,70.90
2022-11-21T00:12:09.664Z,69.40
2022-11-21T00:13:16.193Z,66.63
2022-11-21T00:14:19.268Z,66.57
2022-11-21T00:15:23.379Z,74.10
2022-11-21T00:16:26.487Z,70.40
2022-11-21T00:17:29.481Z,67.75
2022-11-21T00:18:34.897Z,63.72
2022-11-21T00:19:37.960Z,68.13
2022-11-21T00:20:42.288Z,77.55
2022-11-21T00:21:45.242Z,68.47
2022-11-21T00:22:49.437Z,71.60
2022-11-21T00:23:53.442Z,64.30
2022-11-21T00:24:56.443Z,64.65
2022-11-21T00:25:59.539Z,66.65
2022-11-21T00:27:02.537Z,67.65
2022-11-21T00:28:06.244Z,66.80
2022-11-21T00:29:09.617Z,70.95
2022-11-21T00:30:13.102Z,67.90
2022-11-21T00:31:23.944Z,64.82
2022-11-21T00:32:27.384Z,68.53
2022-11-21T00:33:30.840Z,73.93
2022-11-21T00:34:33.886Z,65.03
2022-11-21T00:35:36.900Z,80.03
2022-11-21T00:36:39.897Z,75.68
2022-11-21T00:37:42.984Z,71.55
2022-11-21T00:38:46.441Z,68.05
2022-11-21T00:39:49.667Z,71.70
2022-11-21T00:40:52.706Z,69.60
2022-11-21T00:41:55.712Z,79.35
2022-11-21T00:42:58.989Z,67.68
2022-11-21T00:44:01.979Z,72.35
2022-11-21T00:45:05.709Z,62.10
2022-11-21T00:46:08.778Z,68.93
2022-11-21T00:47:12.390Z,65.53
2022-11-21T00:48:15.408Z,72.07
2022-11-21T00:49:18.464Z,69.28
2022-11-21T00:50:21.578Z,69.93
2022-11-21T00:51:24.660Z,73.07
2022-11-21T00:52:27.671Z,68.03
2022-11-21T00:53:30.766Z,68.93
2022-11-21T00:54:33.969Z,62.15
2022-11-21T00:55:37.399Z,69.22
2022-11-21T00:56:40.483Z,73.30
2022-11-21T00:57:43.490Z,70.15
2022-11-21T00:58:46.627Z,70.15
2022-11-21T00:59:49.665Z,69.13
2022-11-21T01:00:52.994Z,65.18
2022-11-21T01:01:56.152Z,78.80
2022-11-21T01:02:59.210Z,74.25
2022-11-21T01:04:02.681Z,75.75
2022-11-21T01:05:06.722Z,76.47
2022-11-21T01:06:15.871Z,73.85
2022-11-21T01:07:18.877Z,66.93
2022-11-21T01:08:22.038Z,71.32
2022-11-21T01:09:25.165Z,61.90
2022-11-21T01:10:28.255Z,67.80
2022-11-21T01:11:31.549Z,81.25
2022-11-21T01:12:34.921Z,70.38
2022-11-21T01:13:38.909Z,77.50
2022-11-21T01:14:42.045Z,74.28
2022-11-21T01:15:45.305Z,71.75
2022-11-21T01:16:48.308Z,69.13
2022-11-21T01:17:51.405Z,76.45
2022-11-21T01:18:55.050Z,72.95
2022-11-21T01:19:58.258Z,65.63
2022-11-21T01:21:04.340Z,66.93
2022-11-21T01:22:07.290Z,72.65
2022-11-21T01:23:10.249Z,71.75
2022-11-21T01:24:13.574Z,72.82
2022-11-21T01:25:16.789Z,71.32
2022-11-21T01:26:23.902Z,69.72
2022-11-21T01:27:27.052Z,75.50
2022-11-21T01:28:30.227Z,76.40
2022-11-21T01:29:33.221Z,77.03
2022-11-21T01:30:36.435Z,72.05
2022-11-21T01:31:39.438Z,82.72
2022-11-21T01:32:42.466Z,73.63
2022-11-21T01:33:46.567Z,75.85
2022-11-21T01:34:49.570Z,71.07
2022-11-21T01:35:52.612Z,75.20
2022-11-21T01:36:55.622Z,71.18
2022-11-21T01:37:58.950Z,66.80
2022-11-21T01:39:07.462Z,72.63
2022-11-21T01:40:14.267Z,76.45
2022-11-21T01:41:25.190Z,79.95
2022-11-21T01:42:28.282Z,76.53
2022-11-21T01:43:31.293Z,72.40
2022-11-21T01:44:53.657Z,72.10
2022-11-21T01:46:00.256Z,74.15
2022-11-21T01:47:03.339Z,74.50
2022-11-21T01:48:06.641Z,78.75
2022-11-21T01:49:24.814Z,73.45
2022-11-21T01:50:27.809Z,87.75
2022-11-21T01:51:52.019Z,84.95
2022-11-21T01:52:55.130Z,69.60
2022-11-21T01:54:28.406Z,76.85
2022-11-21T01:55:31.574Z,67.55
2022-11-21T01:56:46.727Z,75.45
2022-11-21T01:57:50.223Z,70.07
2022-11-21T01:58:56.904Z,73.93
2022-11-21T02:00:23.262Z,70.53
2022-11-21T02:01:27.638Z,68.85
2022-11-21T02:02:35.933Z,71.57
2022-11-21T02:03:41.513Z,76.07
2022-11-21T02:04:45.878Z,69.10
2022-11-21T02:05:48.943Z,72.18
2022-11-21T02:06:52.070Z,71.45
2022-11-21T02:08:02.489Z,73.57
2022-11-21T02:09:07.088Z,67.88
2022-11-21T02:10:11.310Z,67.10
2022-11-21T02:11:38.415Z,65.65
2022-11-21T02:12:51.632Z,70.15
2022-11-21T02:13:55.830Z,74.15
2022-11-21T02:14:59.871Z,67.68
2022-11-21T02:16:03.458Z,87.70
2022-11-21T02:17:09.575Z,66.80
2022-11-21T02:18:12.565Z,73.93
2022-11-21T02:19:44.927Z,85.15
2022-11-21T02:20:57.263Z,67.18
2022-11-21T02:22:12.904Z,64.95
2022-11-21T02:24:04.941Z,71.40
2022-11-21T02:25:15.237Z,68.35
2022-11-21T02:26:18.546Z,70.25
2022-11-21T02:27:21.981Z,74.30
2022-11-21T02:28:25.435Z,76.78
2022-11-21T02:29:28.660Z,80.85
2022-11-21T02:30:34.683Z,67.88
2022-11-21T02:31:37.716Z,67.70
2022-11-21T02:32:49.787Z,75.25
2022-11-21T02:33:52.884Z,68.53
2022-11-21T02:34:55.925Z,73.32
2022-11-21T02:36:01.022Z,68.28
2022-11-21T02:37:04.034Z,66.28
2022-11-21T02:38:22.678Z,67.22
2022-11-21T02:39:37.153Z,70.90
2022-11-21T02:41:07.319Z,72.50
2022-11-21T02:42:15.498Z,79.20
2022-11-21T02:43:29.607Z,69.13
2022-11-21T02:45:08.325Z,79.88
2022-11-21T02:46:11.326Z,69.55
2022-11-21T02:47:14.314Z,77.35
2022-11-21T02:48:17.286Z,77.53
2022-11-21T02:50:45.723Z,66.80
2022-11-21T02:51:48.741Z,70.85
2022-11-21T02:52:51.379Z,80.85
2022-11-21T02:53:53.996Z,69.82
2022-11-21T02:54:56.609Z,75.80
2022-11-21T02:55:59.359Z,78.80
2022-11-21T02:57:02.410Z,83.63
2022-11-21T02:58:05.939Z,84.07
2022-11-21T02:59:08.528Z,92.60
2022-11-21T03:00:11.922Z,90.57
2022-11-21T03:01:14.585Z,75.60
2022-11-21T03:02:17.311Z,79.75
2022-11-21T03:03:23.113Z,79.03
2022-11-21T03:04:26.889Z,77.90
2022-11-21T03:05:30.114Z,73.45
2022-11-21T03:06:32.765Z,81.80
2022-11-21T03:07:35.436Z,71.97
2022-11-21T03:08:38.188Z,79.28
2022-11-21T03:09:40.869Z,82.75
2022-11-21T03:10:43.488Z,85.78
2022-11-21T03:11:46.342Z,79.60
2022-11-21T03:12:48.982Z,71.75
2022-11-21T03:13:51.618Z,71.95
2022-11-21T03:14:54.224Z,68.55
2022-11-21T03:15:56.788Z,65.85
2022-11-21T03:16:59.454Z,72.57
2022-11-21T03:18:03.272Z,80.63
2022-11-21T03:19:06.009Z,79.15
2022-11-21T03:20:09.694Z,73.78
2022-11-21T03:21:12.409Z,70.25
2022-11-21T03:22:15.682Z,81.05
2022-11-21T03:23:18.337Z,76.65
2022-11-21T03:24:20.984Z,82.78
2022-11-21T03:25:23.760Z,72.90
2022-11-21T03:26:26.443Z,79.55
2022-11-21T03:27:29.113Z,92.40
2022-11-21T03:28:31.926Z,77.00
2022-11-21T03:29:34.626Z,80.38
2022-11-21T03:30:37.381Z,78.13
2022-11-21T03:31:39.983Z,84.88
2022-11-21T03:32:42.612Z,76.05
2022-11-21T03:33:45.213Z,78.47
2022-11-21T03:34:47.800Z,76.10
2022-11-21T03:35:50.449Z,71.70
2022-11-21T03:36:53.147Z,89.15
2022-11-21T03:37:55.775Z,85.13
2022-11-21T03:38:58.650Z,72.75
2022-11-21T03:40:01.291Z,80.80
2022-11-21T03:41:26.570Z,78.18
2022-11-21T03:42:29.196Z,76.25
2022-11-21T03:43:32.240Z,65.43
2022-11-21T03:44:34.881Z,71.72
2022-11-21T03:45:37.652Z,64.13
2022-11-21T03:46:43.547Z,73.95
2022-11-21T03:47:46.160Z,61.03
2022-11-21T03:48:48.868Z,69.78
2022-11-21T03:49:51.645Z,63.65
2022-11-21T03:50:54.324Z,71.28
2022-11-21T03:51:57.020Z,74.10
2022-11-21T03:52:59.634Z,74.70
2022-11-21T03:54:03.121Z,60.95
2022-11-21T03:55:06.121Z,67.80
2022-11-21T03:56:08.896Z,70.22
2022-11-21T03:57:11.494Z,78.68
2022-11-21T03:58:14.053Z,75.10
2022-11-21T03:59:16.714Z,76.53
2022-11-21T04:00:19.633Z,76.13
2022-11-21T04:01:22.628Z,74.10
2022-11-21T04:02:25.284Z,83.50
2022-11-21T04:03:28.005Z,83.25
2022-11-21T04:04:30.908Z,74.50
2022-11-21T04:05:33.651Z,71.47
2022-11-21T04:06:36.347Z,73.55
2022-11-21T04:07:39.040Z,67.40
2022-11-21T04:08:41.800Z,63.13
2022-11-21T04:09:44.412Z,74.38
2022-11-21T04:10:51.349Z,78.97
2022-11-21T04:11:53.938Z,71.97
2022-11-21T04:12:56.535Z,85.18
2022-11-21T04:13:59.245Z,78.68
2022-11-21T04:15:02.037Z,81.78
2022-11-21T04:16:05.133Z,85.47
2022-11-21T04:17:08.068Z,83.50
2022-11-21T04:18:11.181Z,68.13
2022-11-21T04:19:13.802Z,84.53
2022-11-21T04:20:16.763Z,74.13
2022-11-21T04:21:19.450Z,68.40
2022-11-21T04:22:22.002Z,81.13
2022-11-21T04:23:25.132Z,72.82
2022-11-21T04:24:28.110Z,89.72
2022-11-21T04:25:31.481Z,79.18
2022-11-21T04:26:34.269Z,79.95
2022-11-21T04:27:36.976Z,77.15
2022-11-21T04:28:39.725Z,80.85
2022-11-21T04:29:42.406Z,82.45
2022-11-21T04:30:45.091Z,86.60
2022-11-21T04:31:47.687Z,74.05
2022-11-21T04:32:53.715Z,69.60
2022-11-21T04:33:56.347Z,70.78
2022-11-21T04:34:59.250Z,71.70
2022-11-21T04:36:02.170Z,72.13
2022-11-21T04:37:08.896Z,76.75
2022-11-21T04:38:14.920Z,76.25
2022-11-21T04:39:17.667Z,78.45
2022-11-21T04:40:20.348Z,83.03
2022-11-21T04:41:22.924Z,77.15
2022-11-21T04:42:25.632Z,74.65
2022-11-21T04:43:28.317Z,78.00
2022-11-21T04:44:31.053Z,78.65
2022-11-21T04:45:33.768Z,82.47
2022-11-21T04:46:36.401Z,76.40
2022-11-21T04:47:39.801Z,91.65
2022-11-21T04:48:42.672Z,83.38
2022-11-21T04:49:45.273Z,85.03
2022-11-21T04:50:47.921Z,74.65
2022-11-21T04:51:50.530Z,79.07
2022-11-21T04:52:54.916Z,75.70
2022-11-21T04:53:57.530Z,77.38
2022-11-21T04:55:00.504Z,74.80
2022-11-21T04:56:06.401Z,80.93
2022-11-21T04:57:09.072Z,83.30
2022-11-21T04:58:11.805Z,78.65
2022-11-21T04:59:14.638Z,83.78
2022-11-21T05:00:23.838Z,85.28
2022-11-21T05:01:27.049Z,84.65
2022-11-21T05:02:29.752Z,78.03
2022-11-21T05:03:32.399Z,91.43
2022-11-21T05:04:35.034Z,79.18
2022-11-21T05:05:37.729Z,92.35
2022-11-21T05:06:40.502Z,87.60
2022-11-21T05:07:43.446Z,94.97
2022-11-21T05:08:51.619Z,79.90
2022-11-21T05:09:55.488Z,88.10
2022-11-21T05:11:16.851Z,74.88
2022-11-21T05:12:38.361Z,84.18
2022-11-21T05:13:41.078Z,85.43
2022-11-21T05:14:43.681Z,75.10
2022-11-21T05:15:46.472Z,88.18
2022-11-21T05:16:49.096Z,78.97
2022-11-21T05:17:51.910Z,87.95
2022-11-21T05:18:54.567Z,89.78
2022-11-21T05:19:57.209Z,83.25
2022-11-21T05:21:01.758Z,78.78
2022-11-21T05:22:04.426Z,83.93
2022-11-21T05:23:07.218Z,90.80
2022-11-21T05:24:09.851Z,95.75
2022-11-21T05:25:12.610Z,92.93
2022-11-21T05:26:15.240Z,80.35
2022-11-21T05:27:17.905Z,79.63
2022-11-21T05:28:20.520Z,84.03
2022-11-21T05:29:27.898Z,78.80
2022-11-21T05:30:31.091Z,79.65
2022-11-21T05:31:34.011Z,73.32
2022-11-21T05:32:36.784Z,79.15
2022-11-21T05:33:39.424Z,79.20
2022-11-21T05:34:42.083Z,76.20
2022-11-21T05:35:44.815Z,85.25
2022-11-21T05:36:47.470Z,71.43
2022-11-21T05:37:56.621Z,81.47
2022-11-21T05:38:59.530Z,86.72
2022-11-21T05:40:02.383Z,88.75
2022-11-21T05:41:05.261Z,88.30
2022-11-21T05:42:07.953Z,84.10
2022-11-21T05:43:44.298Z,83.40
2022-11-21T05:44:47.019Z,77.72
2022-11-21T05:45:50.348Z,95.55
2022-11-21T05:46:53.012Z,77.97
2022-11-21T05:47:55.701Z,90.57
2022-11-21T05:48:58.356Z,81.47
2022-11-21T05:50:01.056Z,88.60
2022-11-21T05:51:04.693Z,82.30
2022-11-21T05:52:07.300Z,89.47
2022-11-21T05:53:09.961Z,85.20
2022-11-21T05:54:14.750Z,82.05
2022-11-21T05:55:17.358Z,80.07
2022-11-21T05:56:20.262Z,84.72
2022-11-21T05:57:23.030Z,77.88
2022-11-21T05:58:25.684Z,82.78
2022-11-21T05:59:28.295Z,73.50
2022-11-21T06:00:31.301Z,91.57
2022-11-21T06:01:52.758Z,73.88
2022-11-21T06:03:14.115Z,78.35
2022-11-21T06:04:16.947Z,70.25
2022-11-21T06:05:19.593Z,79.88
2022-11-21T06:06:25.008Z,72.47
2022-11-21T06:07:27.796Z,70.45
2022-11-21T06:08:36.098Z,70.95
2022-11-21T06:09:38.815Z,75.30
2022-11-21T06:10:41.500Z,77.53
2022-11-21T06:11:44.150Z,78.13
2022-11-21T06:12:46.902Z,89.70
2022-11-21T06:13:49.543Z,76.53
2022-11-21T06:14:52.149Z,73.97
2022-11-21T06:16:02.126Z,84.32
2022-11-21T06:17:05.445Z,73.32
2022-11-21T06:18:08.055Z,84.50
2022-11-21T06:19:11.356Z,77.72
2022-11-21T06:20:14.383Z,83.30
2022-11-21T06:21:19.346Z,81.70
2022-11-21T06:22:21.981Z,76.22
2022-11-21T06:23:24.593Z,77.03
2022-11-21T06:24:27.594Z,90.57
2022-11-21T06:25:30.447Z,82.97
2022-11-21T06:26:33.093Z,78.13
2022-11-21T06:27:35.809Z,83.95
2022-11-21T06:28:40.061Z,85.28
2022-11-21T06:29:42.790Z,82.72
2022-11-21T06:30:46.314Z,77.88
2022-11-21T06:31:49.058Z,80.03
2022-11-21T06:32:52.093Z,74.20
2022-11-21T06:33:56.698Z,77.78
2022-11-21T06:34:59.315Z,75.60
2022-11-21T06:36:12.110Z,72.43
2022-11-21T06:37:14.790Z,79.85
2022-11-21T06:38:19.891Z,69.20
2022-11-21T06:39:22.545Z,70.15
2022-11-21T06:40:25.847Z,78.18
2022-11-21T06:41:30.925Z,74.88
2022-11-21T06:42:34.035Z,78.45
2022-11-21T06:43:36.625Z,73.75
2022-11-21T06:44:39.322Z,84.68
2022-11-21T06:45:41.966Z,76.72
2022-11-21T06:46:50.707Z,81.00
2022-11-21T06:47:53.831Z,75.05
2022-11-21T06:48:56.550Z,88.55
2022-11-21T06:49:59.157Z,87.03
2022-11-21T06:51:05.755Z,77.72
2022-11-21T06:52:08.518Z,83.60
2022-11-21T06:53:11.218Z,77.10
2022-11-21T06:54:16.889Z,81.38
2022-11-21T06:55:27.536Z,83.22
2022-11-21T06:56:33.402Z,78.22
2022-11-21T06:57:36.115Z,76.63
2022-11-21T06:58:38.867Z,80.30
2022-11-21T06:59:41.625Z,86.80
2022-11-21T07:00:44.634Z,80.40
2022-11-21T07:01:47.411Z,76.53
2022-11-21T07:02:50.027Z,88.60
2022-11-21T07:03:53.353Z,78.38
2022-11-21T07:04:56.140Z,78.57
2022-11-21T07:06:01.735Z,79.35
2022-11-21T07:07:04.444Z,74.47
2022-11-21T07:08:13.039Z,84.20
2022-11-21T07:09:32.752Z,74.90
2022-11-21T07:10:35.872Z,66.97
2022-11-21T07:11:38.616Z,78.18
2022-11-21T07:13:00.120Z,75.38
2022-11-21T07:14:07.751Z,70.22
2022-11-21T07:15:11.835Z,73.88
2022-11-21T07:16:14.916Z,76.90
2022-11-21T07:17:17.680Z,71.55
2022-11-21T07:18:21.603Z,74.95
2022-11-21T07:19:24.653Z,78.85
2022-11-21T07:20:27.465Z,75.93
2022-11-21T07:21:30.080Z,69.25
2022-11-21T07:22:32.788Z,88.45
2022-11-21T07:23:36.243Z,78.70
2022-11-21T07:24:39.034Z,74.63
2022-11-21T07:25:41.905Z,76.28
2022-11-21T07:26:44.600Z,73.20
2022-11-21T07:27:47.376Z,89.70
2022-11-21T07:28:49.998Z,81.32
2022-11-21T07:29:52.788Z,81.47
2022-11-21T07:30:59.941Z,72.05
2022-11-21T07:32:02.598Z,82.85
2022-11-21T07:33:06.816Z,89.53
2022-11-21T07:34:09.532Z,79.18
2022-11-21T07:35:12.127Z,83.50
2022-11-21T07:36:14.824Z,68.40
2022-11-21T07:37:17.424Z,77.55
2022-11-21T07:38:20.031Z,81.47
2022-11-21T07:39:22.764Z,82.22
2022-11-21T07:40:25.531Z,79.43
2022-11-21T07:41:28.439Z,76.90
2022-11-21T07:42:33.133Z,86.15
2022-11-21T07:43:35.808Z,79.72
2022-11-21T07:44:38.732Z,82.43
2022-11-21T07:45:41.377Z,90.85
2022-11-21T07:46:43.992Z,81.43
2022-11-21T07:47:47.004Z,91.80
2022-11-21T07:48:49.765Z,83.78
2022-11-21T07:49:52.540Z,92.07
2022-11-21T07:50:55.143Z,84.47
2022-11-21T07:51:58.920Z,83.47
2022-11-21T07:53:04.289Z,89.07
2022-11-21T07:54:07.037Z,86.70
2022-11-21T07:55:10.011Z,88.13
2022-11-21T07:56:12.719Z,81.30
2022-11-21T07:57:15.330Z,80.35
2022-11-21T07:58:18.155Z,81.40
2022-11-21T07:59:20.872Z,82.22
2022-11-21T08:00:23.870Z,76.80
2022-11-21T08:01:26.630Z,76.38
2022-11-21T08:02:29.540Z,79.88
2022-11-21T08:03:33.552Z,82.15
2022-11-21T08:04:36.723Z,78.30
2022-11-21T08:05:41.480Z,85.97
2022-11-21T08:06:44.110Z,80.82
2022-11-21T08:07:47.080Z,67.80
2022-11-21T08:08:53.935Z,70.80
2022-11-21T08:09:56.752Z,78.93
2022-11-21T08:10:59.430Z,76.85
2022-11-21T08:12:02.093Z,77.97
2022-11-21T08:13:04.826Z,75.82
2022-11-21T08:14:07.559Z,72.20
2022-11-21T08:15:10.944Z,79.57
2022-11-21T08:16:13.845Z,77.95
2022-11-21T08:17:18.506Z,76.40
2022-11-21T08:18:21.146Z,81.68
2022-11-21T08:19:23.969Z,81.40
2022-11-21T08:20:26.662Z,75.18
2022-11-21T08:21:29.369Z,74.85
2022-11-21T08:22:32.034Z,68.45
2022-11-21T08:23:34.739Z,71.85
2022-11-21T08:24:37.615Z,78.25
2022-11-21T08:25:41.493Z,78.30
2022-11-21T08:26:45.289Z,76.70
2022-11-21T08:27:48.029Z,76.28
2022-11-21T08:28:52.359Z,76.75
2022-11-21T08:29:58.232Z,84.93
2022-11-21T08:31:04.749Z,76.43
2022-11-21T08:32:07.406Z,76.38
2022-11-21T08:33:10.112Z,83.82
2022-11-21T08:34:14.766Z,78.10
2022-11-21T08:35:17.654Z,78.72
2022-11-21T08:36:20.270Z,77.47
2022-11-21T08:37:23.263Z,72.45
2022-11-21T08:38:25.866Z,77.13
2022-11-21T08:39:31.102Z,74.53
2022-11-21T08:40:34.385Z,81.20
2022-11-21T08:41:55.746Z,84.03
2022-11-21T08:43:05.747Z,83.15
2022-11-21T08:44:13.662Z,76.80
2022-11-21T08:45:16.930Z,80.95
2022-11-21T08:46:19.645Z,76.63
2022-11-21T08:47:22.405Z,75.43
2022-11-21T08:48:25.034Z,72.13
2022-11-21T08:49:28.438Z,71.13
2022-11-21T08:50:32.134Z,73.03
2022-11-21T08:51:35.878Z,67.30
2022-11-21T08:52:38.493Z,75.57
2022-11-21T08:53:41.200Z,75.13
2022-11-21T08:54:44.690Z,70.65
2022-11-21T08:55:47.292Z,75.88
2022-11-21T08:56:50.712Z,77.53
2022-11-21T08:57:53.390Z,68.03
2022-11-21T08:58:56.372Z,78.45
2022-11-21T08:59:58.963Z,70.22
2022-11-21T09:01:01.696Z,71.70
2022-11-21T09:02:04.464Z,68.82
2022-11-21T09:03:07.183Z,75.50
2022-11-21T09:04:10.548Z,76.88
2022-11-21T09:05:13.194Z,72.32
2022-11-21T09:06:15.900Z,69.72
2022-11-21T09:07:18.607Z,76.50
2022-11-21T09:08:21.268Z,68.20
2022-11-21T09:09:25.522Z,65.68
2022-11-21T09:10:29.458Z,65.95
2022-11-21T09:11:32.592Z,73.85
2022-11-21T09:12:35.265Z,69.22
2022-11-21T09:13:38.015Z,70.43
2022-11-21T09:14:59.086Z,70.03
2022-11-21T09:16:21.441Z,64.22
2022-11-21T09:17:42.759Z,65.13
2022-11-21T09:18:45.592Z,74.25
2022-11-21T09:19:49.674Z,68.07
2022-11-21T09:20:52.290Z,73.95
2022-11-21T09:21:54.985Z,65.70
2022-11-21T09:22:57.654Z,69.28
2022-11-21T09:24:00.358Z,69.38
2022-11-21T09:25:03.061Z,70.13
2022-11-21T09:26:05.766Z,63.90
2022-11-21T09:27:08.467Z,65.43
2022-11-21T09:28:12.800Z,71.90
2022-11-21T09:29:16.367Z,67.57
2022-11-21T09:30:19.239Z,69.82
2022-11-21T09:31:21.904Z,63.47
2022-11-21T09:32:24.607Z,61.05
2022-11-21T09:33:27.407Z,64.43
2022-11-21T09:34:31.698Z,58.63
2022-11-21T09:35:34.784Z,63.28
2022-11-21T09:36:37.710Z,65.72
2022-11-21T09:37:40.604Z,68.30
2022-11-21T09:38:45.386Z,64.10
2022-11-21T09:39:49.050Z,61.90
2022-11-21T09:40:51.749Z,62.33
2022-11-21T09:42:15.492Z,60.22
2022-11-21T09:43:38.388Z,62.55
2022-11-21T09:44:54.906Z,57.50
2022-11-21T09:46:10.822Z,70.25
2022-11-21T09:47:39.521Z,63.83
2022-11-21T09:48:56.137Z,57.35
2022-11-21T09:50:05.668Z,59.30
2022-11-21T09:51:12.320Z,54.65
2022-11-21T09:52:16.133Z,59.10
2022-11-21T09:53:25.778Z,57.55
2022-11-21T09:54:32.188Z,64.18
2022-11-21T09:55:34.832Z,61.22
2022-11-21T09:56:41.421Z,61.33
2022-11-21T09:57:45.097Z,60.60
2022-11-21T09:59:25.808Z,62.50
2022-11-21T10:00:28.464Z,52.25
2022-11-21T10:01:32.038Z,56.55
2022-11-21T10:02:34.725Z,63.42
2022-11-21T10:03:52.411Z,57.95
2022-11-21T10:05:00.615Z,51.47
2022-11-21T10:06:29.746Z,58.67
2022-11-21T10:07:33.114Z,59.47
2022-11-21T10:08:59.869Z,55.28
2022-11-21T10:10:14.198Z,59.03
2022-11-21T10:12:21.916Z,57.80
2022-11-21T10:13:59.790Z,55.53
2022-11-21T10:15:06.600Z,64.38
2022-11-21T10:16:10.435Z,64.57
2022-11-21T10:17:39.142Z,62.75
2022-11-21T10:18:57.124Z,66.35
2022-11-21T10:20:32.503Z,66.90
2022-11-21T10:22:07.454Z,71.13
2022-11-21T10:23:35.240Z,68.80
2022-11-21T10:24:45.153Z,65.88
2022-11-21T10:26:17.186Z,69.03
2022-11-21T10:27:27.253Z,69.28
2022-11-21T10:28:37.087Z,77.45
2022-11-21T10:30:14.696Z,71.40
2022-11-21T10:31:18.019Z,62.55
2022-11-21T10:32:35.278Z,62.28
2022-11-21T10:33:40.550Z,72.78
2022-11-21T10:34:43.667Z,67.75
2022-11-21T10:35:52.366Z,68.07
2022-11-21T10:36:58.368Z,64.35
2022-11-21T10:38:02.928Z,69.88
2022-11-21T10:39:36.202Z,60.45
2022-11-21T10:40:44.656Z,61.13
2022-11-21T10:42:01.575Z,65.68
2022-11-21T10:43:55.036Z,63.78
2022-11-21T10:45:19.127Z,62.03
2022-11-21T10:46:21.989Z,58.45
2022-11-21T10:47:34.154Z,63.90
2022-11-21T10:48:36.988Z,65.18
2022-11-21T10:49:40.016Z,54.55
2022-11-21T10:50:54.520Z,62.05
2022-11-21T10:52:14.211Z,54.65
2022-11-21T10:53:38.667Z,53.85
2022-11-21T10:55:05.413Z,56.63
2022-11-21T10:56:17.532Z,55.22
2022-11-21T10:57:20.659Z,61.67
2022-11-21T10:58:53.981Z,66.97
2022-11-21T11:00:15.066Z,59.78
2022-11-21T11:01:34.792Z,55.92
2022-11-21T11:02:37.723Z,60.00
2022-11-21T11:03:40.356Z,57.47
2022-11-21T11:04:49.042Z,56.72
2022-11-21T11:05:58.196Z,55.83
2022-11-21T11:07:29.073Z,50.28
2022-11-21T11:08:50.721Z,51.55
2022-11-21T11:10:14.041Z,53.22
2022-11-21T11:11:21.579Z,47.13
2022-11-21T11:12:49.170Z,45.90
2022-11-21T11:13:58.953Z,48.05
2022-11-21T11:15:01.576Z,52.30
2022-11-21T11:16:04.588Z,52.15
2022-11-21T11:17:14.235Z,43.78
2022-11-21T11:18:21.419Z,50.92
2022-11-21T11:19:35.460Z,47.05
2022-11-21T11:20:45.260Z,46.13
2022-11-21T11:21:49.548Z,45.17
2022-11-21T11:22:52.589Z,45.90
2022-11-21T11:24:11.763Z,41.42
2022-11-21T11:25:14.679Z,46.45
2022-11-21T11:26:24.559Z,51.90
2022-11-21T11:27:28.678Z,56.03
2022-11-21T11:28:36.595Z,47.83
2022-11-21T11:29:50.669Z,49.60
2022-11-21T11:30:56.237Z,47.92
2022-11-21T11:32:21.576Z,48.15
2022-11-21T11:33:33.138Z,53.38
2022-11-21T11:34:35.754Z,52.63
2022-11-21T11:35:40.007Z,47.65
2022-11-21T11:36:53.973Z,51.13
2022-11-21T11:38:03.680Z,47.17
2022-11-21T11:39:30.849Z,51.00
2022-11-21T11:40:37.832Z,53.58
2022-11-21T11:42:38.038Z,45.03
2022-11-21T11:44:11.149Z,46.40
2022-11-21T11:45:32.469Z,50.55
2022-11-21T11:47:32.604Z,47.83
2022-11-21T11:49:03.231Z,47.70
2022-11-21T11:50:42.018Z,45.17
2022-11-21T11:51:51.799Z,47.03
2022-11-21T11:53:06.131Z,47.10
2022-11-21T11:54:18.676Z,48.33
2022-11-21T11:55:30.952Z,47.55
2022-11-21T11:56:37.988Z,46.67
2022-11-21T11:57:41.477Z,41.13
2022-11-21T11:58:46.617Z,46.03
2022-11-21T11:59:55.664Z,44.33
2022-11-21T12:01:06.482Z,45.90
2022-11-21T12:03:19.627Z,40.40
2022-11-21T12:04:26.229Z,47.17
2022-11-21T12:05:30.558Z,41.22
2022-11-21T12:07:10.665Z,43.67
2022-11-21T12:08:40.079Z,35.50
2022-11-21T12:09:33.233Z,41.95
2022-11-21T12:11:12.783Z,45.25
2022-11-21T12:12:32.848Z,55.92
2022-11-21T12:13:36.585Z,47.03
2022-11-21T12:15:11.781Z,49.22
2022-11-21T12:16:14.813Z,46.05
2022-11-21T12:17:22.019Z,44.53
2022-11-21T12:18:33.097Z,52.75
2022-11-21T12:19:36.707Z,54.45
2022-11-21T12:20:57.263Z,47.38
2022-11-21T12:22:00.085Z,50.70
2022-11-21T12:23:04.582Z,46.60
2022-11-21T12:24:10.131Z,47.50
2022-11-21T12:25:13.764Z,46.20
2022-11-21T12:26:37.770Z,52.33
2022-11-21T12:27:42.111Z,43.97
2022-11-21T12:28:53.756Z,44.03
2022-11-21T12:30:14.983Z,43.42
2022-11-21T12:32:05.651Z,49.38
2022-11-21T12:33:26.369Z,45.95
2022-11-21T12:35:02.523Z,41.10
2022-11-21T12:36:17.966Z,40.53
2022-11-21T12:37:27.625Z,46.20
2022-11-21T12:38:49.094Z,44.25
2022-11-21T12:40:10.137Z,51.78
2022-11-21T12:41:40.748Z,48.05
2022-11-21T12:43:20.608Z,42.78
2022-11-21T12:44:48.046Z,39.88
2022-11-21T12:45:57.851Z,46.45
2022-11-21T12:47:26.319Z,36.95
2022-11-21T12:49:09.430Z,43.60
2022-11-21T12:50:41.326Z,41.25
2022-11-21T12:52:26.962Z,45.20
2022-11-21T12:54:05.583Z,47.47
2022-11-21T12:55:24.776Z,45.40
2022-11-21T12:56:52.329Z,53.50
2022-11-21T12:58:16.422Z,43.85
2022-11-21T12:59:20.085Z,53.42
2022-11-21T13:00:48.533Z,50.95
2022-11-21T13:01:55.351Z,46.63
2022-11-21T13:03:00.869Z,45.08
2022-11-21T13:04:10.024Z,49.95
2022-11-21T13:05:18.366Z,56.65
2022-11-21T13:06:25.222Z,51.78
2022-11-21T13:07:32.333Z,47.08
2022-11-21T13:08:38.734Z,53.05
2022-11-21T13:09:45.789Z,53.40
2022-11-21T13:11:39.119Z,57.97
2022-11-21T13:12:57.610Z,55.00
2022-11-21T13:14:11.666Z,46.42
2022-11-21T13:15:22.231Z,54.90
2022-11-21T13:16:37.132Z,55.78
2022-11-21T13:17:56.353Z,53.22
2022-11-21T13:18:59.093Z,47.33
2022-11-21T13:20:18.704Z,53.88
2022-11-21T13:21:44.420Z,48.50
2022-11-21T13:22:47.199Z,53.47
2022-11-21T13:23:50.015Z,51.80
2022-11-21T13:24:56.436Z,50.65
2022-11-21T13:25:59.160Z,48.78
2022-11-21T13:27:01.828Z,50.78
2022-11-21T13:28:19.428Z,58.50
2022-11-21T13:29:22.101Z,48.88
2022-11-21T13:30:25.064Z,54.90
2022-11-21T13:31:32.326Z,58.38
2022-11-21T13:32:42.131Z,54.92
2022-11-21T13:33:48.554Z,38.70
2022-11-21T13:34:51.116Z,51.40
2022-11-21T13:35:53.807Z,42.22
2022-11-21T13:36:56.624Z,48.85
2022-11-21T13:38:10.241Z,47.55
2022-11-21T13:39:15.613Z,46.83
2022-11-21T13:40:27.522Z,48.10
2022-11-21T13:41:54.883Z,59.45
2022-11-21T13:43:32.091Z,48.38
2022-11-21T13:44:32.599Z,49.97
2022-11-21T13:45:43.865Z,54.22
2022-11-21T13:47:03.697Z,46.70
2022-11-21T13:48:34.752Z,54.72
2022-11-21T13:50:51.832Z,51.83
2022-11-21T13:51:55.394Z,45.88
2022-11-21T13:53:04.586Z,47.85
2022-11-21T13:54:17.145Z,49.03
2022-11-21T13:55:51.680Z,47.70
2022-11-21T13:57:03.449Z,52.17
2022-11-21T13:58:15.256Z,50.45
2022-11-21T13:59:17.808Z,44.47
2022-11-21T14:00:31.365Z,50.25
2022-11-21T14:01:53.138Z,38.78
2022-11-21T14:03:28.206Z,51.42
2022-11-21T14:04:55.278Z,46.90
2022-11-21T14:05:58.082Z,39.53
2022-11-21T14:07:35.605Z,38.03
2022-11-21T14:08:38.582Z,48.22
2022-11-21T14:09:51.448Z,42.17
2022-11-21T14:10:56.145Z,41.22
2022-11-21T14:12:02.207Z,42.20
2022-11-21T14:13:05.127Z,43.50
2022-11-21T14:14:09.312Z,45.67
2022-11-21T14:15:31.997Z,42.42
2022-11-21T14:16:43.271Z,47.17
2022-11-21T14:17:55.074Z,52.88
2022-11-21T14:18:58.151Z,41.50
2022-11-21T14:20:15.288Z,47.50
2022-11-21T14:21:26.808Z,43.15
2022-11-21T14:22:42.408Z,44.33
2022-11-21T14:23:48.125Z,48.97
2022-11-21T14:24:52.422Z,43.30
2022-11-21T14:25:55.954Z,43.97
2022-11-21T14:26:58.899Z,43.45
2022-11-21T14:28:02.387Z,45.95
2022-11-21T14:29:23.999Z,44.63
2022-11-21T14:30:38.395Z,48.65
2022-11-21T14:31:48.207Z,43.45
2022-11-21T14:32:54.395Z,44.08
2022-11-21T14:33:58.543Z,44.00
2022-11-21T14:35:09.399Z,48.03
2022-11-21T14:36:19.758Z,48.17